Weather reports worldwide

Advertisment
Desenzano, Italy (16089): temperature & dewpoint: 10.11.2018 05:00:00 - 16.11.2018 05:00:00 (CET)Desenzano, Italy (16089): wind speed: 10.11.2018 05:00:00 - 16.11.2018 05:00:00 (CET)Desenzano, Italy (16089): wind direction: 10.11.2018 05:00:00 - 16.11.2018 05:00:00 (CET)Desenzano, Italy (16089): reduced air pressure: 10.11.2018 05:00:00 - 16.11.2018 05:00:00 (CET)Desenzano, Italy (16089): precipitation: 10.11.2018 05:00:00 - 16.11.2018 05:00:00 (CET)
Date & Time tt [°C] td [°C] ff [km/h] ff [kn] dd ppp [hPa] rr [mm]
16.11.2018 05:00:00 - - - - - - -
16.11.2018 04:00:00 9,2 9,2 0 0 N 1026,0 -
16.11.2018 03:00:00 9,0 9,0 0 0 N 1025,9 -
16.11.2018 02:00:00 9,2 9,2 0 0 N 1025,4 -
16.11.2018 01:00:00 9,7 9,7 0 0 N 1024,9 0,0
16.11.2018 00:00:00 10,0 9,8 0 0 N 1024,9 -
15.11.2018 23:00:00 10,9 10,6 0 0 N 1024,8 -
15.11.2018 22:00:00 11,4 10,6 0 0 N 1024,7 -
15.11.2018 21:00:00 12,9 12,6 0 0 N 1024,5 -
15.11.2018 20:00:00 12,7 12,2 0 0 N 1024,5 -
15.11.2018 19:00:00 12,3 10,9 0 0 N 1024,5 0,0
15.11.2018 18:00:00 13,2 11,1 2 1 SSE 1024,5 -
15.11.2018 17:00:00 14,4 11,3 0 0 N 1024,8 -
15.11.2018 16:00:00 15,5 12,0 0 0 N 1025,0 -
15.11.2018 15:00:00 15,7 11,6 0 0 N 1025,5 -
15.11.2018 14:00:00 15,3 11,5 2 1 SE 1025,7 -
15.11.2018 13:00:00 14,9 12,9 0 0 N 1026,2 0,0
15.11.2018 12:00:00 14,3 12,3 0 0 N 1026,5 -
15.11.2018 11:00:00 13,9 11,9 2 1 SSE 1026,9 -
15.11.2018 10:00:00 13,5 12,0 0 0 N 1027,0 -
15.11.2018 09:00:00 13,2 12,6 0 0 N 1027,3 -
15.11.2018 08:00:00 12,8 12,0 0 0 N 1027,2 -
15.11.2018 07:00:00 12,6 11,6 0 0 N 1026,9 0,0
15.11.2018 06:00:00 12,7 10,7 0 0 N 1026,6 -
15.11.2018 05:00:00 14,7 13,7 13 7 NW 1026,4 -
15.11.2018 04:00:00 14,6 14,2 9 5 WNW 1026,4 -
15.11.2018 03:00:00 12,7 12,2 5 3 WNW 1026,7 -
15.11.2018 02:00:00 14,5 14,4 5 3 WNW 1027,0 -
15.11.2018 01:00:00 12,4 12,4 4 2 WNW 1027,2 0,0
15.11.2018 00:00:00 12,6 12,6 0 0 N 1027,6 -
14.11.2018 23:00:00 12,9 12,8 0 0 N 1027,6 -
14.11.2018 22:00:00 12,9 12,8 0 0 N 1027,6 -
14.11.2018 21:00:00 13,1 12,6 4 2 SSW 1027,5 -
14.11.2018 20:00:00 14,3 13,6 0 0 N 1027,2 -
14.11.2018 19:00:00 14,9 13,9 4 2 SSW 1027,2 0,0
14.11.2018 18:00:00 15,5 13,5 2 1 SSW 1027,1 -
14.11.2018 17:00:00 17,1 14,5 2 1 S 1026,9 -
14.11.2018 16:00:00 18,1 14,9 2 1 SSE 1026,9 -
14.11.2018 15:00:00 18,3 14,9 2 1 SSW 1027,2 -
14.11.2018 14:00:00 17,7 13,7 0 0 N 1027,6 -
14.11.2018 13:00:00 17,8 14,0 2 1 NNE 1028,5 0,0
14.11.2018 12:00:00 16,9 14,8 5 3 NNW 1029,4 -
14.11.2018 11:00:00 15,7 14,5 5 3 NNW 1030,0 -
14.11.2018 10:00:00 14,8 14,7 5 3 WNW 1029,8 -
14.11.2018 09:00:00 13,4 13,3 0 0 N 1029,7 -
14.11.2018 08:00:00 12,4 12,4 0 0 N 1029,2 -
14.11.2018 07:00:00 14,2 14,1 8 4 NNW 1028,5 0,0
14.11.2018 06:00:00 12,5 12,5 8 4 NNW 1028,4 -
14.11.2018 05:00:00 12,7 12,7 0 0 N 1028,2 -
14.11.2018 04:00:00 13,7 13,6 0 0 N 1028,3 -
14.11.2018 03:00:00 14,1 14,0 0 0 N 1028,5 -
14.11.2018 02:00:00 15,3 15,2 5 3 ENE 1028,6 -
14.11.2018 01:00:00 15,4 15,3 2 1 E 1028,5 0,0
14.11.2018 00:00:00 15,3 15,2 0 0 N 1028,4 -
13.11.2018 23:00:00 15,8 15,7 2 1 NNW 1028,2 -
13.11.2018 22:00:00 15,2 15,1 8 4 NW 1028,1 -
13.11.2018 21:00:00 14,0 13,9 0 0 N 1027,9 -
13.11.2018 20:00:00 14,6 14,5 0 0 N 1027,6 -
13.11.2018 19:00:00 15,2 14,7 2 1 S 1027,2 0,0
13.11.2018 18:00:00 16,1 15,1 0 0 N 1027,0 -
13.11.2018 17:00:00 17,4 16,2 0 0 N 1026,6 -
13.11.2018 16:00:00 18,2 16,5 8 4 SW 1026,3 -
13.11.2018 15:00:00 18,7 17,3 5 3 SSW 1026,2 -
13.11.2018 14:00:00 18,7 17,3 4 2 SW 1026,6 -
13.11.2018 13:00:00 18,5 17,6 2 1 SSW 1027,0 0,0
13.11.2018 12:00:00 17,6 17,1 2 1 W 1027,3 -
13.11.2018 11:00:00 16,8 16,7 4 2 SW 1027,8 -
13.11.2018 10:00:00 15,9 15,8 4 2 SW 1027,7 -
13.11.2018 09:00:00 15,2 15,1 0 0 N 1027,6 -
13.11.2018 08:00:00 14,9 14,8 2 1 SSW 1027,1 -
13.11.2018 07:00:00 15,3 15,2 0 0 N 1026,6 0,0
13.11.2018 06:00:00 15,3 15,2 0 0 N 1026,6 -
13.11.2018 05:00:00 15,1 15,0 2 1 SW 1026,5 -
13.11.2018 04:00:00 15,0 14,9 4 2 S 1026,6 -
13.11.2018 03:00:00 15,0 14,9 2 1 S 1026,9 -
13.11.2018 02:00:00 15,1 15,0 4 2 SSW 1027,1 -
13.11.2018 01:00:00 15,0 14,9 4 2 SW 1027,1 0,0
13.11.2018 00:00:00 15,9 15,8 0 0 N 1027,2 -
12.11.2018 23:00:00 15,7 15,6 0 0 N 1027,3 -
12.11.2018 22:00:00 15,9 15,8 2 1 S 1027,2 -
12.11.2018 21:00:00 16,1 16,0 4 2 S 1027,2 -
12.11.2018 20:00:00 16,4 16,0 4 2 S 1027,1 -
12.11.2018 19:00:00 16,8 16,3 2 1 S 1026,8 0,0
12.11.2018 18:00:00 16,8 15,8 0 0 N 1026,4 -
12.11.2018 17:00:00 17,2 15,5 2 1 SSW 1026,1 -
12.11.2018 16:00:00 18,3 16,4 2 1 SSW 1025,9 -
12.11.2018 15:00:00 18,9 16,8 2 1 S 1025,7 -
12.11.2018 14:00:00 19,0 17,3 4 2 ENE 1025,8 -
12.11.2018 13:00:00 18,1 15,8 0 0 N 1026,0 0,0
12.11.2018 12:00:00 17,0 16,6 0 0 N 1026,4 -
12.11.2018 11:00:00 16,3 16,2 0 0 N 1026,6 -
12.11.2018 10:00:00 16,0 15,9 4 2 NNW 1026,4 -
12.11.2018 09:00:00 14,8 14,7 2 1 SW 1026,1 -
12.11.2018 08:00:00 13,8 13,7 4 2 S 1025,8 -
12.11.2018 07:00:00 14,0 13,9 0 0 N 1025,1 0,0
12.11.2018 06:00:00 13,8 13,7 0 0 N 1024,7 -
12.11.2018 05:00:00 14,2 14,1 4 2 S 1024,7 -
12.11.2018 04:00:00 14,5 14,4 4 2 S 1024,4 -
12.11.2018 03:00:00 14,7 14,6 2 1 SSE 1024,3 -
12.11.2018 02:00:00 14,8 14,7 2 1 SW 1024,2 -
12.11.2018 01:00:00 14,8 14,7 2 1 S 1024,0 0,0
12.11.2018 00:00:00 15,0 14,8 0 0 N 1024,1 -
11.11.2018 23:00:00 15,0 14,8 0 0 N 1024,0 -
11.11.2018 22:00:00 15,0 14,9 0 0 N 1023,9 -
11.11.2018 21:00:00 15,1 14,7 0 0 N 1023,5 -
11.11.2018 20:00:00 15,2 14,5 0 0 N 1023,3 -
11.11.2018 19:00:00 15,7 15,0 0 0 N 1022,8 0,0
11.11.2018 18:00:00 16,0 15,0 0 0 N 1022,4 -
11.11.2018 17:00:00 16,4 15,0 0 0 N 1021,9 -
11.11.2018 16:00:00 17,0 15,5 0 0 N 1021,6 -
11.11.2018 15:00:00 17,1 15,2 0 0 N 1021,3 -
11.11.2018 14:00:00 16,9 15,4 0 0 N 1021,1 -
11.11.2018 13:00:00 16,4 15,5 0 0 N 1021,1 0,0
11.11.2018 12:00:00 16,0 15,8 0 0 N 1020,8 -
11.11.2018 11:00:00 15,4 15,3 0 0 N 1020,6 -
11.11.2018 10:00:00 14,7 14,5 0 0 N 1020,2 -
11.11.2018 09:00:00 14,5 14,4 0 0 N 1019,5 -
11.11.2018 08:00:00 14,0 13,8 0 0 N 1018,9 -
11.11.2018 07:00:00 14,0 13,6 0 0 N 1018,1 0,0
11.11.2018 06:00:00 14,2 13,7 0 0 N 1017,7 -
11.11.2018 05:00:00 14,2 14,1 4 2 E 1017,6 -
11.11.2018 04:00:00 13,8 13,6 2 1 E 1017,4 -
11.11.2018 03:00:00 14,2 14,0 2 1 ESE 1017,5 -
11.11.2018 02:00:00 14,4 13,6 0 0 N 1017,5 -
11.11.2018 01:00:00 14,5 13,3 2 1 E 1017,3 0,0
11.11.2018 00:00:00 14,4 13,2 8 4 E 1017,3 -
10.11.2018 23:00:00 13,4 12,9 5 3 ENE 1017,6 -
10.11.2018 22:00:00 13,3 12,8 0 0 N 1017,8 -
10.11.2018 21:00:00 13,5 13,0 0 0 N 1017,7 -
10.11.2018 20:00:00 13,5 12,8 0 0 N 1017,3 -
10.11.2018 19:00:00 13,8 13,1 0 0 N 1017,0 0,0
10.11.2018 18:00:00 14,0 13,0 0 0 N 1016,8 -
10.11.2018 17:00:00 14,2 13,0 0 0 N 1016,7 -
10.11.2018 16:00:00 14,3 13,1 4 2 E 1016,4 -
10.11.2018 15:00:00 14,4 13,2 4 2 E 1016,1 -
10.11.2018 14:00:00 14,6 13,7 4 2 E 1016,4 -
10.11.2018 13:00:00 14,5 13,7 4 2 E 1016,7 0,0
10.11.2018 12:00:00 14,2 14,1 4 2 E 1017,3 -
10.11.2018 11:00:00 13,5 13,4 2 1 E 1017,9 -
10.11.2018 10:00:00 13,6 13,5 4 2 E 1017,8 -
10.11.2018 09:00:00 13,4 13,3 0 0 N 1017,9 -
10.11.2018 08:00:00 13,4 13,3 0 0 N 1017,6 -
10.11.2018 07:00:00 13,4 13,3 0 0 N 1017,4 0,0
10.11.2018 06:00:00 13,2 13,1 0 0 N 1017,3 -
10.11.2018 05:00:00 13,2 13,1 2 1 SSE 1017,4 -

tt = temperature
td = dewpoint
ff = wind speed
dd = wind direction
ppp = reduced air pressure
rr = precipitation

Next stations